sensor_id;sensor_type;location;lat;lon;timestamp;pressure;altitude;pressure_sealevel;temperature;humidity
36222;BME280;22266;52.340;4.962;2022-08-03T00:00:20;101462.91;;;21.80;64.00
36222;BME280;22266;52.340;4.962;2022-08-03T00:02:46;101471.63;;;21.77;64.19
36222;BME280;22266;52.340;4.962;2022-08-03T00:05:13;101466.31;;;21.70;64.28
36222;BME280;22266;52.340;4.962;2022-08-03T00:07:39;101467.34;;;21.64;64.44
36222;BME280;22266;52.340;4.962;2022-08-03T00:10:06;101470.56;;;21.61;64.55
36222;BME280;22266;52.340;4.962;2022-08-03T00:12:33;101463.19;;;21.62;64.69
36222;BME280;22266;52.340;4.962;2022-08-03T00:15:01;101459.69;;;21.66;64.77
36222;BME280;22266;52.340;4.962;2022-08-03T00:17:28;101466.84;;;21.67;64.60
36222;BME280;22266;52.340;4.962;2022-08-03T00:20:14;101468.66;;;21.62;64.59
36222;BME280;22266;52.340;4.962;2022-08-03T00:22:41;101464.53;;;21.59;64.89
36222;BME280;22266;52.340;4.962;2022-08-03T00:25:07;101468.66;;;21.62;64.80
36222;BME280;22266;52.340;4.962;2022-08-03T00:27:33;101464.59;;;21.64;64.86
36222;BME280;22266;52.340;4.962;2022-08-03T00:30:00;101460.22;;;21.63;64.67
36222;BME280;22266;52.340;4.962;2022-08-03T00:32:27;101461.84;;;21.64;64.93
36222;BME280;22266;52.340;4.962;2022-08-03T00:34:53;101465.69;;;21.63;64.80
36222;BME280;22266;52.340;4.962;2022-08-03T00:37:24;101457.47;;;21.63;65.06
36222;BME280;22266;52.340;4.962;2022-08-03T00:40:09;101462.69;;;21.65;64.97
36222;BME280;22266;52.340;4.962;2022-08-03T00:45:17;101456.31;;;21.59;65.20
36222;BME280;22266;52.340;4.962;2022-08-03T00:47:44;101451.66;;;21.60;65.21
36222;BME280;22266;52.340;4.962;2022-08-03T00:50:11;101444.25;;;21.60;65.07
36222;BME280;22266;52.340;4.962;2022-08-03T00:52:38;101447.00;;;21.60;65.06
36222;BME280;22266;52.340;4.962;2022-08-03T00:55:05;101447.50;;;21.57;65.42
36222;BME280;22266;52.340;4.962;2022-08-03T00:57:32;101440.38;;;21.56;65.15
36222;BME280;22266;52.340;4.962;2022-08-03T00:59:58;101438.47;;;21.57;65.44
36222;BME280;22266;52.340;4.962;2022-08-03T01:02:27;101429.59;;;21.50;65.28
36222;BME280;22266;52.340;4.962;2022-08-03T01:04:54;101438.06;;;21.48;65.77
36222;BME280;22266;52.340;4.962;2022-08-03T01:07:50;101429.84;;;21.48;65.50
36222;BME280;22266;52.340;4.962;2022-08-03T01:10:53;101427.94;;;21.48;65.45
36222;BME280;22266;52.340;4.962;2022-08-03T01:13:30;101431.50;;;21.49;65.67
36222;BME280;22266;52.340;4.962;2022-08-03T01:19:30;101434.19;;;21.44;65.71
36222;BME280;22266;52.340;4.962;2022-08-03T01:22:16;101424.53;;;21.41;65.60
36222;BME280;22266;52.340;4.962;2022-08-03T01:25:02;101425.63;;;21.40;66.04
36222;BME280;22266;52.340;4.962;2022-08-03T01:30:12;101411.13;;;21.40;65.96
36222;BME280;22266;52.340;4.962;2022-08-03T01:32:53;101411.63;;;21.37;65.93
36222;BME280;22266;52.340;4.962;2022-08-03T01:35:34;101415.44;;;21.36;66.09
36222;BME280;22266;52.340;4.962;2022-08-03T01:38:13;101415.94;;;21.33;65.97
36222;BME280;22266;52.340;4.962;2022-08-03T01:40:42;101418.41;;;21.34;66.06
36222;BME280;22266;52.340;4.962;2022-08-03T01:43:12;101411.75;;;21.30;65.95
36222;BME280;22266;52.340;4.962;2022-08-03T01:46:02;101419.72;;;21.32;66.04
36222;BME280;22266;52.340;4.962;2022-08-03T01:48:30;101416.16;;;21.31;66.01
36222;BME280;22266;52.340;4.962;2022-08-03T01:50:58;101412.00;;;21.29;66.21
36222;BME280;22266;52.340;4.962;2022-08-03T01:53:26;101417.97;;;21.26;66.01
36222;BME280;22266;52.340;4.962;2022-08-03T01:55:55;101411.13;;;21.23;66.32
36222;BME280;22266;52.340;4.962;2022-08-03T01:58:23;101419.34;;;21.23;66.75
36222;BME280;22266;52.340;4.962;2022-08-03T02:00:50;101409.78;;;21.26;66.39
36222;BME280;22266;52.340;4.962;2022-08-03T02:03:19;101408.38;;;21.23;66.21
36222;BME280;22266;52.340;4.962;2022-08-03T02:05:49;101410.53;;;21.21;66.44
36222;BME280;22266;52.340;4.962;2022-08-03T02:08:32;101410.78;;;21.19;66.58
36222;BME280;22266;52.340;4.962;2022-08-03T02:11:00;101410.78;;;21.19;66.65
36222;BME280;22266;52.340;4.962;2022-08-03T02:13:27;101409.38;;;21.17;66.53
36222;BME280;22266;52.340;4.962;2022-08-03T02:15:55;101403.63;;;21.18;66.66
36222;BME280;22266;52.340;4.962;2022-08-03T02:18:23;101400.91;;;21.18;66.59
36222;BME280;22266;52.340;4.962;2022-08-03T02:20:51;101402.81;;;21.18;66.70
36222;BME280;22266;52.340;4.962;2022-08-03T02:23:17;101399.19;;;21.12;66.56
36222;BME280;22266;52.340;4.962;2022-08-03T02:25:47;101398.84;;;21.09;66.89
36222;BME280;22266;52.340;4.962;2022-08-03T02:28:20;101398.59;;;21.10;66.95
36222;BME280;22266;52.340;4.962;2022-08-03T02:30:52;101392.81;;;21.07;67.06
36222;BME280;22266;52.340;4.962;2022-08-03T02:33:25;101391.06;;;21.01;67.31
36222;BME280;22266;52.340;4.962;2022-08-03T02:35:53;101378.47;;;20.99;67.47
36222;BME280;22266;52.340;4.962;2022-08-03T02:38:22;101380.09;;;21.01;67.60
36222;BME280;22266;52.340;4.962;2022-08-03T02:40:54;101374.38;;;21.02;67.62
36222;BME280;22266;52.340;4.962;2022-08-03T02:43:23;101379.34;;;21.05;67.43
36222;BME280;22266;52.340;4.962;2022-08-03T02:45:51;101385.09;;;21.04;67.52
36222;BME280;22266;52.340;4.962;2022-08-03T02:48:27;101382.09;;;21.05;67.45
36222;BME280;22266;52.340;4.962;2022-08-03T02:50:57;101382.09;;;21.05;67.37
36222;BME280;22266;52.340;4.962;2022-08-03T02:53:26;101387.22;;;21.02;67.40
36222;BME280;22266;52.340;4.962;2022-08-03T02:55:54;101388.91;;;21.03;67.54
36222;BME280;22266;52.340;4.962;2022-08-03T02:58:22;101385.25;;;20.97;67.64
36222;BME280;22266;52.340;4.962;2022-08-03T03:00:50;101389.00;;;20.91;67.85
36222;BME280;22266;52.340;4.962;2022-08-03T03:03:19;101385.94;;;20.87;68.02
36222;BME280;22266;52.340;4.962;2022-08-03T03:05:47;101386.44;;;20.84;68.10
36222;BME280;22266;52.340;4.962;2022-08-03T03:08:23;101382.28;;;20.82;68.39
36222;BME280;22266;52.340;4.962;2022-08-03T03:10:55;101382.88;;;20.84;68.23
36222;BME280;22266;52.340;4.962;2022-08-03T03:13:22;101381.72;;;20.80;68.24
36222;BME280;22266;52.340;4.962;2022-08-03T03:15:51;101384.66;;;20.78;68.52
36222;BME280;22266;52.340;4.962;2022-08-03T03:18:18;101386.91;;;20.81;68.70
36222;BME280;22266;52.340;4.962;2022-08-03T03:20:50;101385.00;;;20.82;68.46
36222;BME280;22266;52.340;4.962;2022-08-03T03:23:19;101379.72;;;20.75;68.53
36222;BME280;22266;52.340;4.962;2022-08-03T03:25:47;101371.25;;;20.77;68.58
36222;BME280;22266;52.340;4.962;2022-08-03T03:28:14;101376.16;;;20.74;68.62
36222;BME280;22266;52.340;4.962;2022-08-03T03:30:41;101381.53;;;20.69;68.90
36222;BME280;22266;52.340;4.962;2022-08-03T03:33:08;101375.00;;;20.70;68.75
36222;BME280;22266;52.340;4.962;2022-08-03T03:35:34;101375.22;;;20.69;68.81
36222;BME280;22266;52.340;4.962;2022-08-03T03:38:05;101366.47;;;20.67;68.90
36222;BME280;22266;52.340;4.962;2022-08-03T03:40:34;101376.81;;;20.65;68.86
36222;BME280;22266;52.340;4.962;2022-08-03T03:43:00;101377.88;;;20.64;69.03
36222;BME280;22266;52.340;4.962;2022-08-03T03:45:27;101375.41;;;20.62;69.17
36222;BME280;22266;52.340;4.962;2022-08-03T03:47:58;101378.63;;;20.59;69.09
36222;BME280;22266;52.340;4.962;2022-08-03T03:50:26;101370.16;;;20.61;69.15
36222;BME280;22266;52.340;4.962;2022-08-03T03:52:53;101380.28;;;20.60;69.04
36222;BME280;22266;52.340;4.962;2022-08-03T03:55:19;101383.03;;;20.60;69.06
36222;BME280;22266;52.340;4.962;2022-08-03T03:57:46;101388.50;;;20.60;69.05
36222;BME280;22266;52.340;4.962;2022-08-03T04:00:14;101388.91;;;20.52;69.19
36222;BME280;22266;52.340;4.962;2022-08-03T04:02:41;101390.81;;;20.52;69.39
36222;BME280;22266;52.340;4.962;2022-08-03T04:05:08;101390.56;;;20.53;69.39
36222;BME280;22266;52.340;4.962;2022-08-03T04:08:03;101384.50;;;20.51;69.31
36222;BME280;22266;52.340;4.962;2022-08-03T04:11:21;101389.16;;;20.51;69.38
36222;BME280;22266;52.340;4.962;2022-08-03T04:14:15;101385.59;;;20.50;69.46
36222;BME280;22266;52.340;4.962;2022-08-03T04:16:49;101386.06;;;20.47;69.42
36222;BME280;22266;52.340;4.962;2022-08-03T04:21:52;101384.16;;;20.47;69.16
36222;BME280;22266;52.340;4.962;2022-08-03T04:24:26;101393.44;;;20.46;69.16
36222;BME280;22266;52.340;4.962;2022-08-03T04:26:56;101387.84;;;20.41;69.25
36222;BME280;22266;52.340;4.962;2022-08-03T04:29:25;101393.22;;;20.36;69.87
36222;BME280;22266;52.340;4.962;2022-08-03T04:31:53;101387.19;;;20.34;69.95
36222;BME280;22266;52.340;4.962;2022-08-03T04:34:22;101389.41;;;20.37;69.86
36222;BME280;22266;52.340;4.962;2022-08-03T04:36:51;101392.41;;;20.36;69.96
36222;BME280;22266;52.340;4.962;2022-08-03T04:39:24;101394.81;;;20.32;69.82
36222;BME280;22266;52.340;4.962;2022-08-03T04:41:53;101394.72;;;20.27;70.12
36222;BME280;22266;52.340;4.962;2022-08-03T04:44:41;101400.53;;;20.31;70.04
36222;BME280;22266;52.340;4.962;2022-08-03T04:47:08;101406.00;;;20.31;70.12
36222;BME280;22266;52.340;4.962;2022-08-03T04:49:35;101406.56;;;20.33;70.17
36222;BME280;22266;52.340;4.962;2022-08-03T04:52:04;101405.50;;;20.34;70.24
36222;BME280;22266;52.340;4.962;2022-08-03T04:54:38;101414.03;;;20.37;70.24
36222;BME280;22266;52.340;4.962;2022-08-03T04:57:05;101412.47;;;20.41;69.99
36222;BME280;22266;52.340;4.962;2022-08-03T04:59:32;101411.63;;;20.41;70.00
36222;BME280;22266;52.340;4.962;2022-08-03T05:02:04;101414.72;;;20.44;69.83
36222;BME280;22266;52.340;4.962;2022-08-03T05:04:30;101415.53;;;20.45;69.89
36222;BME280;22266;52.340;4.962;2022-08-03T05:06:57;101420.19;;;20.44;69.83
36222;BME280;22266;52.340;4.962;2022-08-03T05:09:25;101417.22;;;20.46;70.04
36222;BME280;22266;52.340;4.962;2022-08-03T05:12:12;101415.91;;;20.48;69.76
36222;BME280;22266;52.340;4.962;2022-08-03T05:14:39;101411.25;;;20.49;69.61
36222;BME280;22266;52.340;4.962;2022-08-03T05:17:05;101418.88;;;20.47;69.64
36222;BME280;22266;52.340;4.962;2022-08-03T05:19:32;101414.72;;;20.44;69.71
36222;BME280;22266;52.340;4.962;2022-08-03T05:21:59;101416.06;;;20.42;69.86
36222;BME280;22266;52.340;4.962;2022-08-03T05:24:25;101422.69;;;20.46;70.02
36222;BME280;22266;52.340;4.962;2022-08-03T05:26:52;101422.44;;;20.47;69.94
36222;BME280;22266;52.340;4.962;2022-08-03T05:29:19;101428.28;;;20.51;69.70
36222;BME280;22266;52.340;4.962;2022-08-03T05:31:45;101419.81;;;20.53;69.59
36222;BME280;22266;52.340;4.962;2022-08-03T05:34:11;101425.06;;;20.54;69.70
36222;BME280;22266;52.340;4.962;2022-08-03T05:36:38;101429.09;;;20.52;69.83
36222;BME280;22266;52.340;4.962;2022-08-03T05:39:04;101416.25;;;20.52;69.74
36222;BME280;22266;52.340;4.962;2022-08-03T05:41:31;101422.81;;;20.51;69.97
36222;BME280;22266;52.340;4.962;2022-08-03T05:44:02;101425.41;;;20.46;70.00
36222;BME280;22266;52.340;4.962;2022-08-03T05:46:29;101424.75;;;20.39;70.38
36222;BME280;22266;52.340;4.962;2022-08-03T05:48:55;101414.88;;;20.38;70.63
36222;BME280;22266;52.340;4.962;2022-08-03T05:51:22;101417.09;;;20.41;70.64
36222;BME280;22266;52.340;4.962;2022-08-03T05:53:48;101411.91;;;20.39;70.42
36222;BME280;22266;52.340;4.962;2022-08-03T05:56:15;101415.53;;;20.45;70.47
36222;BME280;22266;52.340;4.962;2022-08-03T05:58:45;101420.53;;;20.48;70.69
36222;BME280;22266;52.340;4.962;2022-08-03T06:01:11;101415.91;;;20.48;70.40
36222;BME280;22266;52.340;4.962;2022-08-03T06:03:38;101410.06;;;20.45;70.49
36222;BME280;22266;52.340;4.962;2022-08-03T06:06:05;101423.25;;;20.48;70.87
36222;BME280;22266;52.340;4.962;2022-08-03T06:08:31;101411.25;;;20.49;70.62
36222;BME280;22266;52.340;4.962;2022-08-03T06:10:58;101419.25;;;20.51;70.69
36222;BME280;22266;52.340;4.962;2022-08-03T06:13:24;101417.91;;;20.53;70.43
36222;BME280;22266;52.340;4.962;2022-08-03T06:15:51;101418.72;;;20.54;70.75
36222;BME280;22266;52.340;4.962;2022-08-03T06:18:17;101418.41;;;20.50;70.86
36222;BME280;22266;52.340;4.962;2022-08-03T06:20:44;101420.53;;;20.48;71.03
36222;BME280;22266;52.340;4.962;2022-08-03T06:23:12;101419.69;;;20.47;70.97
36222;BME280;22266;52.340;4.962;2022-08-03T06:25:42;101420.53;;;20.48;71.03
36222;BME280;22266;52.340;4.962;2022-08-03T06:28:08;101414.81;;;20.49;71.08
36222;BME280;22266;52.340;4.962;2022-08-03T06:30:49;101416.50;;;20.51;71.06
36222;BME280;22266;52.340;4.962;2022-08-03T06:33:15;101421.22;;;20.55;71.12
36222;BME280;22266;52.340;4.962;2022-08-03T06:35:42;101421.06;;;20.62;70.92
36222;BME280;22266;52.340;4.962;2022-08-03T06:38:10;101423.31;;;20.65;70.76
36222;BME280;22266;52.340;4.962;2022-08-03T06:40:38;101428.84;;;20.70;70.77
36222;BME280;22266;52.340;4.962;2022-08-03T06:43:07;101433.84;;;20.73;70.55
36222;BME280;22266;52.340;4.962;2022-08-03T06:45:38;101434.66;;;20.73;70.66
36222;BME280;22266;52.340;4.962;2022-08-03T06:48:10;101425.41;;;20.74;70.63
36222;BME280;22266;52.340;4.962;2022-08-03T06:50:38;101433.84;;;20.73;70.81
36222;BME280;22266;52.340;4.962;2022-08-03T06:53:05;101434.94;;;20.72;70.77
36222;BME280;22266;52.340;4.962;2022-08-03T06:55:31;101429.72;;;20.70;70.85
36222;BME280;22266;52.340;4.962;2022-08-03T06:57:58;101430.28;;;20.72;70.80
36222;BME280;22266;52.340;4.962;2022-08-03T07:00:29;101430.88;;;20.74;71.04
36222;BME280;22266;52.340;4.962;2022-08-03T07:02:56;101434.19;;;20.77;71.12
36222;BME280;22266;52.340;4.962;2022-08-03T07:05:24;101437.00;;;20.82;70.86
36222;BME280;22266;52.340;4.962;2022-08-03T07:07:55;101441.50;;;20.88;70.80
36222;BME280;22266;52.340;4.962;2022-08-03T07:10:22;101430.88;;;20.91;70.80
36222;BME280;22266;52.340;4.962;2022-08-03T07:12:49;101444.63;;;20.96;70.60
36222;BME280;22266;52.340;4.962;2022-08-03T07:15:21;101445.53;;;21.02;70.61
36222;BME280;22266;52.340;4.962;2022-08-03T07:18:08;101443.31;;;20.99;70.20
36222;BME280;22266;52.340;4.962;2022-08-03T07:20:35;101452.28;;;20.94;70.58
36222;BME280;22266;52.340;4.962;2022-08-03T07:23:01;101454.75;;;20.96;70.68
36222;BME280;22266;52.340;4.962;2022-08-03T07:25:28;101457.34;;;21.03;70.47
36222;BME280;22266;52.340;4.962;2022-08-03T07:27:55;101457.66;;;21.06;70.55
36222;BME280;22266;52.340;4.962;2022-08-03T07:30:21;101454.09;;;21.06;70.21
36222;BME280;22266;52.340;4.962;2022-08-03T07:32:48;101463.13;;;21.06;70.32
36222;BME280;22266;52.340;4.962;2022-08-03T07:35:16;101471.66;;;21.10;70.19
36222;BME280;22266;52.340;4.962;2022-08-03T07:37:52;101474.25;;;21.16;70.21
36222;BME280;22266;52.340;4.962;2022-08-03T07:40:20;101474.59;;;21.20;69.99
36222;BME280;22266;52.340;4.962;2022-08-03T07:42:47;101475.50;;;21.26;69.73
36222;BME280;22266;52.340;4.962;2022-08-03T07:45:18;101475.97;;;21.22;69.62
36222;BME280;22266;52.340;4.962;2022-08-03T07:47:46;101483.22;;;21.29;69.97
36222;BME280;22266;52.340;4.962;2022-08-03T07:50:19;101483.66;;;21.37;69.47
36222;BME280;22266;52.340;4.962;2022-08-03T07:52:45;101487.28;;;21.43;69.59
36222;BME280;22266;52.340;4.962;2022-08-03T07:55:17;101489.03;;;21.49;69.37
36222;BME280;22266;52.340;4.962;2022-08-03T07:57:43;101479.22;;;21.53;69.04
36222;BME280;22266;52.340;4.962;2022-08-03T08:00:16;101486.63;;;21.53;69.08
36222;BME280;22266;52.340;4.962;2022-08-03T08:02:43;101493.19;;;21.52;69.15
36222;BME280;22266;52.340;4.962;2022-08-03T08:05:10;101482.28;;;21.57;68.84
36222;BME280;22266;52.340;4.962;2022-08-03T08:07:38;101490.84;;;21.60;68.57
36222;BME280;22266;52.340;4.962;2022-08-03T08:10:07;101486.44;;;21.59;68.56
36222;BME280;22266;52.340;4.962;2022-08-03T08:12:36;101486.75;;;21.63;68.60
36222;BME280;22266;52.340;4.962;2022-08-03T08:15:03;101482.19;;;21.68;68.42
36222;BME280;22266;52.340;4.962;2022-08-03T08:17:30;101478.69;;;21.73;68.41
36222;BME280;22266;52.340;4.962;2022-08-03T08:19:56;101486.09;;;21.72;68.12
36222;BME280;22266;52.340;4.962;2022-08-03T08:22:24;101487.03;;;21.83;68.18
36222;BME280;22266;52.340;4.962;2022-08-03T08:24:57;101491.50;;;21.89;67.71
36222;BME280;22266;52.340;4.962;2022-08-03T08:27:23;101483.94;;;21.96;67.26
36222;BME280;22266;52.340;4.962;2022-08-03T08:29:49;101492.53;;;22.05;67.33
36222;BME280;22266;52.340;4.962;2022-08-03T08:32:21;101484.88;;;22.07;67.08
36222;BME280;22266;52.340;4.962;2022-08-03T08:34:48;101482.97;;;22.08;66.70
36222;BME280;22266;52.340;4.962;2022-08-03T08:37:15;101483.81;;;22.08;66.38
36222;BME280;22266;52.340;4.962;2022-08-03T08:39:41;101489.16;;;21.98;66.34
36222;BME280;22266;52.340;4.962;2022-08-03T08:42:08;101487.56;;;22.02;66.49
36222;BME280;22266;52.340;4.962;2022-08-03T08:44:35;101494.19;;;22.06;66.24
36222;BME280;22266;52.340;4.962;2022-08-03T08:47:02;101495.59;;;22.09;66.36
36222;BME280;22266;52.340;4.962;2022-08-03T08:49:31;101488.28;;;22.14;66.28
36222;BME280;22266;52.340;4.962;2022-08-03T08:51:58;101488.44;;;22.25;66.19
36222;BME280;22266;52.340;4.962;2022-08-03T08:54:28;101487.75;;;22.39;65.99
36222;BME280;22266;52.340;4.962;2022-08-03T08:57:01;101489.78;;;22.49;65.67
36222;BME280;22266;52.340;4.962;2022-08-03T08:59:31;101489.78;;;22.49;65.48
36222;BME280;22266;52.340;4.962;2022-08-03T09:02:14;101487.41;;;22.58;64.98
36222;BME280;22266;52.340;4.962;2022-08-03T09:04:42;101485.31;;;22.65;65.10
36222;BME280;22266;52.340;4.962;2022-08-03T09:07:10;101488.13;;;22.75;64.88
36222;BME280;22266;52.340;4.962;2022-08-03T09:09:46;101489.25;;;22.79;64.50
36222;BME280;22266;52.340;4.962;2022-08-03T09:12:43;101482.69;;;22.80;64.11
36222;BME280;22266;52.340;4.962;2022-08-03T09:15:30;101489.31;;;22.84;63.96
36222;BME280;22266;52.340;4.962;2022-08-03T09:17:59;101489.63;;;22.88;63.88
36222;BME280;22266;52.340;4.962;2022-08-03T09:20:28;101486.38;;;22.91;63.62
36222;BME280;22266;52.340;4.962;2022-08-03T09:23:04;101489.16;;;22.96;63.52
36222;BME280;22266;52.340;4.962;2022-08-03T09:25:56;101499.97;;;23.08;63.32
36222;BME280;22266;52.340;4.962;2022-08-03T09:28:33;101494.75;;;23.06;63.23
36222;BME280;22266;52.340;4.962;2022-08-03T09:31:32;101495.28;;;23.03;63.26
36222;BME280;22266;52.340;4.962;2022-08-03T09:34:10;101488.75;;;23.09;63.14
36222;BME280;22266;52.340;4.962;2022-08-03T09:36:40;101494.81;;;23.16;63.26
36222;BME280;22266;52.340;4.962;2022-08-03T09:39:10;101490.56;;;23.31;63.17
36222;BME280;22266;52.340;4.962;2022-08-03T09:41:42;101497.09;;;23.25;62.89
36222;BME280;22266;52.340;4.962;2022-08-03T09:44:09;101489.41;;;23.22;62.37
36222;BME280;22266;52.340;4.962;2022-08-03T09:46:53;101498.81;;;23.31;62.17
36222;BME280;22266;52.340;4.962;2022-08-03T09:49:21;101501.84;;;23.34;62.02
36222;BME280;22266;52.340;4.962;2022-08-03T09:51:48;101493.59;;;23.34;61.92
36222;BME280;22266;52.340;4.962;2022-08-03T09:54:35;101496.69;;;23.43;62.07
36222;BME280;22266;52.340;4.962;2022-08-03T09:57:01;101490.69;;;23.51;61.89
36222;BME280;22266;52.340;4.962;2022-08-03T09:59:29;101495.69;;;23.59;62.08
36222;BME280;22266;52.340;4.962;2022-08-03T10:01:57;101495.72;;;23.64;61.94
36222;BME280;22266;52.340;4.962;2022-08-03T10:04:25;101492.16;;;23.64;61.70
36222;BME280;22266;52.340;4.962;2022-08-03T10:07:09;101502.66;;;23.67;61.32
36222;BME280;22266;52.340;4.962;2022-08-03T10:09:36;101496.34;;;23.72;61.39
36222;BME280;22266;52.340;4.962;2022-08-03T10:12:07;101503.78;;;23.76;60.90
36222;BME280;22266;52.340;4.962;2022-08-03T10:14:36;101505.50;;;23.82;61.14
36222;BME280;22266;52.340;4.962;2022-08-03T10:17:03;101495.84;;;23.80;60.87
36222;BME280;22266;52.340;4.962;2022-08-03T10:19:30;101503.00;;;23.86;61.06
36222;BME280;22266;52.340;4.962;2022-08-03T10:22:02;101502.78;;;23.92;60.80
36222;BME280;22266;52.340;4.962;2022-08-03T10:24:29;101494.53;;;23.98;60.97
36222;BME280;22266;52.340;4.962;2022-08-03T10:27:06;101501.72;;;24.04;60.54
36222;BME280;22266;52.340;4.962;2022-08-03T10:29:38;101486.88;;;24.10;60.38
36222;BME280;22266;52.340;4.962;2022-08-03T10:35:14;101493.84;;;24.28;60.10
36222;BME280;22266;52.340;4.962;2022-08-03T10:38:00;101491.09;;;24.28;59.90
36222;BME280;22266;52.340;4.962;2022-08-03T10:40:30;101496.06;;;24.36;59.75
36222;BME280;22266;52.340;4.962;2022-08-03T10:43:25;101497.19;;;24.35;59.45
36222;BME280;22266;52.340;4.962;2022-08-03T10:45:52;101489.22;;;24.38;59.48
36222;BME280;22266;52.340;4.962;2022-08-03T10:48:20;101493.94;;;24.48;59.60
36222;BME280;22266;52.340;4.962;2022-08-03T10:50:48;101498.59;;;24.42;59.30
36222;BME280;22266;52.340;4.962;2022-08-03T10:53:15;101493.13;;;24.48;59.11
36222;BME280;22266;52.340;4.962;2022-08-03T10:55:45;101479.91;;;24.50;58.75
36222;BME280;22266;52.340;4.962;2022-08-03T11:01:58;101479.94;;;24.60;58.33
36222;BME280;22266;52.340;4.962;2022-08-03T11:04:27;101483.78;;;24.69;58.04
36222;BME280;22266;52.340;4.962;2022-08-03T11:09:44;101464.25;;;24.81;57.71
36222;BME280;22266;52.340;4.962;2022-08-03T11:12:23;101471.97;;;24.94;57.90
36222;BME280;22266;52.340;4.962;2022-08-03T11:15:05;101468.94;;;25.06;57.16
36222;BME280;22266;52.340;4.962;2022-08-03T11:17:33;101475.28;;;25.01;56.83
36222;BME280;22266;52.340;4.962;2022-08-03T11:20:58;101471.69;;;25.06;56.47
36222;BME280;22266;52.340;4.962;2022-08-03T11:23:46;101472.81;;;25.05;55.53
36222;BME280;22266;52.340;4.962;2022-08-03T11:26:32;101478.84;;;25.02;55.32
36222;BME280;22266;52.340;4.962;2022-08-03T11:29:27;101470.03;;;24.95;55.29
36222;BME280;22266;52.340;4.962;2022-08-03T11:31:55;101468.38;;;24.99;55.46
36222;BME280;22266;52.340;4.962;2022-08-03T11:34:22;101468.13;;;25.05;54.58
36222;BME280;22266;52.340;4.962;2022-08-03T11:37:22;101471.97;;;25.20;54.67
36222;BME280;22266;52.340;4.962;2022-08-03T11:39:53;101464.25;;;25.32;54.46
36222;BME280;22266;52.340;4.962;2022-08-03T11:44:50;101470.25;;;25.59;54.89
36222;BME280;22266;52.340;4.962;2022-08-03T11:47:18;101464.75;;;25.64;54.98
36222;BME280;22266;52.340;4.962;2022-08-03T11:49:46;101468.03;;;25.67;53.80
36222;BME280;22266;52.340;4.962;2022-08-03T11:52:14;101475.22;;;25.78;53.73
36222;BME280;22266;52.340;4.962;2022-08-03T11:54:42;101466.88;;;25.88;53.38
36222;BME280;22266;52.340;4.962;2022-08-03T11:57:09;101465.81;;;25.89;52.86
36222;BME280;22266;52.340;4.962;2022-08-03T11:59:36;101466.06;;;25.87;52.79
36222;BME280;22266;52.340;4.962;2022-08-03T12:04:51;101462.44;;;26.02;53.18
36222;BME280;22266;52.340;4.962;2022-08-03T12:07:19;101458.53;;;26.08;52.32
36222;BME280;22266;52.340;4.962;2022-08-03T12:10:12;101464.84;;;26.14;52.58
36222;BME280;22266;52.340;4.962;2022-08-03T12:12:40;101464.53;;;26.26;52.02
36222;BME280;22266;52.340;4.962;2022-08-03T12:15:12;101467.25;;;26.31;51.54
36222;BME280;22266;52.340;4.962;2022-08-03T12:17:39;101459.75;;;26.36;51.91
36222;BME280;22266;52.340;4.962;2022-08-03T12:20:08;101461.66;;;26.41;50.93
36222;BME280;22266;52.340;4.962;2022-08-03T12:22:37;101459.19;;;26.45;51.02
36222;BME280;22266;52.340;4.962;2022-08-03T12:25:07;101465.81;;;26.38;50.13
36222;BME280;22266;52.340;4.962;2022-08-03T12:27:35;101465.00;;;26.38;49.92
36222;BME280;22266;52.340;4.962;2022-08-03T12:30:02;101456.97;;;26.42;50.13
36222;BME280;22266;52.340;4.962;2022-08-03T12:32:30;101450.59;;;26.51;50.00
36222;BME280;22266;52.340;4.962;2022-08-03T12:34:57;101455.25;;;26.56;49.38
36222;BME280;22266;52.340;4.962;2022-08-03T12:37:29;101459.13;;;26.55;48.80
36222;BME280;22266;52.340;4.962;2022-08-03T12:39:58;101446.09;;;26.60;49.16
36222;BME280;22266;52.340;4.962;2022-08-03T12:42:36;101450.47;;;26.67;49.29
36222;BME280;22266;52.340;4.962;2022-08-03T12:47:49;101453.50;;;26.70;48.38
36222;BME280;22266;52.340;4.962;2022-08-03T12:50:30;101449.63;;;26.71;48.35
36222;BME280;22266;52.340;4.962;2022-08-03T12:52:58;101446.91;;;26.61;48.52
36222;BME280;22266;52.340;4.962;2022-08-03T12:55:25;101449.03;;;26.74;48.69
36222;BME280;22266;52.340;4.962;2022-08-03T12:58:33;101448.06;;;26.89;48.41
36222;BME280;22266;52.340;4.962;2022-08-03T13:01:02;101442.47;;;26.99;48.34
36222;BME280;22266;52.340;4.962;2022-08-03T13:03:45;101454.28;;;27.05;48.19
36222;BME280;22266;52.340;4.962;2022-08-03T13:06:18;101441.00;;;27.12;47.77
36222;BME280;22266;52.340;4.962;2022-08-03T13:08:46;101452.00;;;27.17;47.54
36222;BME280;22266;52.340;4.962;2022-08-03T13:11:24;101447.28;;;27.23;47.64
36222;BME280;22266;52.340;4.962;2022-08-03T13:14:11;101452.78;;;27.23;47.00
36222;BME280;22266;52.340;4.962;2022-08-03T13:16:45;101448.09;;;27.23;46.43
36222;BME280;22266;52.340;4.962;2022-08-03T13:19:12;101450.78;;;27.28;46.19
36222;BME280;22266;52.340;4.962;2022-08-03T13:21:41;101447.97;;;27.33;46.24
36222;BME280;22266;52.340;4.962;2022-08-03T13:24:28;101457.28;;;27.43;45.88
36222;BME280;22266;52.340;4.962;2022-08-03T13:26:57;101449.84;;;27.38;45.61
36222;BME280;22266;52.340;4.962;2022-08-03T13:29:23;101458.97;;;27.39;45.98
36222;BME280;22266;52.340;4.962;2022-08-03T13:31:50;101442.69;;;27.37;45.73
36222;BME280;22266;52.340;4.962;2022-08-03T13:34:17;101442.63;;;27.42;45.87
36222;BME280;22266;52.340;4.962;2022-08-03T13:36:49;101443.34;;;27.53;46.00
36222;BME280;22266;52.340;4.962;2022-08-03T13:39:40;101449.84;;;27.67;46.41